Time;durP1;ratioP1;P1;durP2;ratioP2;P2;SDS_P1;SDS_P2;PMS_P1;PMS_P2;Temp;Humidity;BMP_temperature;BMP_pressure;BME280_temperature;BME280_humidity;BME280_pressure;Samples;Min_cycle;Max_cycle;Signal;HPM_P1;HPM_P2
2023/02/14 00:02:08;;;;;;;;;;;0.90;99.90;;;;;;5089880;28;19912;-75
2023/02/14 00:04:37;;;;;;;;;;;0.70;99.90;;;;;;5091469;28;20348;-76
2023/02/14 00:07:03;;;;;;;;;;;0.60;99.90;;;;;;5089965;28;20284;-76
2023/02/14 00:09:28;;;;;;;;;;;0.50;99.90;;;;;;5090039;28;20471;-76
2023/02/14 00:11:54;;;;;;;;;;;0.30;99.90;;;;;;5090033;28;20002;-76
2023/02/14 00:17:03;;;;;;;;;;;0.30;99.90;;;;;;5091334;28;19957;-77
2023/02/14 00:19:30;;;;;;;;;;;0.10;99.90;;;;;;5091186;28;19904;-75
2023/02/14 00:21:56;;;;;;;;;;;0.00;99.90;;;;;;5089811;28;20392;-77
2023/02/14 00:24:23;;;;;;;;;;;0.00;99.90;;;;;;5091087;28;19950;-78
2023/02/14 00:26:49;;;;;;;;;;;-0.10;99.90;;;;;;5089640;28;19904;-77
2023/02/14 00:29:19;;;;;;;;;;;-0.10;99.90;;;;;;5090954;28;19915;-77
2023/02/14 00:31:45;;;;;;;;;;;-0.20;99.90;;;;;;5089523;28;20287;-76
2023/02/14 00:34:11;;;;;;;;;;;-0.30;99.90;;;;;;5090705;28;19915;-77
2023/02/14 00:36:37;;;;;;;;;;;-0.30;99.90;;;;;;5089551;28;20326;-76
2023/02/14 00:39:03;;;;;;;;;;;-0.30;99.90;;;;;;5090866;28;19905;-77
2023/02/14 00:41:28;;;;;;;;;;;-0.30;99.90;;;;;;5090714;28;19908;-75
2023/02/14 00:43:54;;;;;;;;;;;-0.30;99.90;;;;;;5089262;28;19912;-75
2023/02/14 00:46:20;;;;;;;;;;;-0.20;99.90;;;;;;5090250;28;19970;-76
2023/02/14 00:48:46;;;;;;;;;;;-0.30;99.90;;;;;;5090528;28;20288;-76
2023/02/14 00:51:12;;;;;;;;;;;-0.20;99.90;;;;;;5090580;28;19963;-76
2023/02/14 00:53:38;;;;;;;;;;;-0.20;99.90;;;;;;5090471;28;19918;-76
2023/02/14 00:56:04;;;;;;;;;;;-0.20;99.90;;;;;;5089181;28;20284;-74
2023/02/14 00:58:29;;;;;;;;;;;-0.20;99.90;;;;;;5090255;28;20502;-77
2023/02/14 01:00:55;;;;;;;;;;;-0.20;99.90;;;;;;5088849;28;19985;-76
2023/02/14 01:03:21;;;;;;;;;;;-0.30;99.90;;;;;;5090149;28;19920;-76
2023/02/14 01:05:47;;;;;;;;;;;-0.30;99.90;;;;;;5090167;28;20221;-76
2023/02/14 01:08:13;;;;;;;;;;;-0.40;99.90;;;;;;5088775;28;19930;-76
2023/02/14 01:10:38;;;;;;;;;;;-0.40;99.90;;;;;;5090360;28;19961;-77
2023/02/14 01:13:04;;;;;;;;;;;-0.40;99.90;;;;;;5088572;28;20013;-76
2023/02/14 01:15:30;;;;;;;;;;;-0.40;99.90;;;;;;5090171;28;19908;-77
2023/02/14 01:17:59;;;;;;;;;;;-0.40;99.90;;;;;;5089931;28;19911;-77
2023/02/14 01:20:25;;;;;;;;;;;-0.50;99.90;;;;;;5088595;28;19922;-75
2023/02/14 01:22:51;;;;;;;;;;;-0.50;99.90;;;;;;5090076;28;19923;-76
2023/02/14 01:25:16;;;;;;;;;;;-0.50;99.90;;;;;;5090117;28;19904;-76
2023/02/14 01:27:42;;;;;;;;;;;-0.60;99.90;;;;;;5089893;28;19908;-75
2023/02/14 01:30:08;;;;;;;;;;;-0.70;99.90;;;;;;5088769;28;19919;-76
2023/02/14 01:32:34;;;;;;;;;;;-0.70;99.90;;;;;;5087969;28;19908;-76
2023/02/14 01:34:59;;;;;;;;;;;-0.70;99.90;;;;;;5089826;28;19915;-76
2023/02/14 01:37:25;;;;;;;;;;;-0.70;99.90;;;;;;5089720;28;20397;-77
2023/02/14 01:39:51;;;;;;;;;;;-0.70;99.90;;;;;;5089651;28;20376;-78
2023/02/14 01:42:16;;;;;;;;;;;-0.80;99.90;;;;;;5088022;28;19933;-76
2023/02/14 01:44:42;;;;;;;;;;;-0.70;99.90;;;;;;5088681;28;20276;-76
2023/02/14 01:47:08;;;;;;;;;;;-0.70;99.90;;;;;;5088396;28;20361;-75
2023/02/14 01:49:36;;;;;;;;;;;-0.60;99.90;;;;;;5087938;28;19986;-76
2023/02/14 01:52:02;;;;;;;;;;;-0.60;99.90;;;;;;5089695;28;20006;-76
2023/02/14 01:54:28;;;;;;;;;;;-0.60;99.90;;;;;;5087922;28;20428;-76
2023/02/14 01:56:56;;;;;;;;;;;-0.60;99.90;;;;;;5088755;28;20375;-76
2023/02/14 01:59:23;;;;;;;;;;;-0.60;99.90;;;;;;5089343;28;19998;-77
2023/02/14 02:01:49;;;;;;;;;;;-0.60;99.90;;;;;;5087957;28;19923;-76
2023/02/14 02:04:16;;;;;;;;;;;-0.60;99.90;;;;;;5089323;28;19908;-77
2023/02/14 02:06:48;;;;;;;;;;;-0.70;99.90;;;;;;5089308;28;19904;-77
2023/02/14 02:09:17;;;;;;;;;;;-0.70;99.90;;;;;;5087801;28;20322;-76
2023/02/14 02:11:43;;;;;;;;;;;-0.60;99.90;;;;;;5089348;28;19914;-77
2023/02/14 02:14:16;;;;;;;;;;;-0.50;99.90;;;;;;5087708;28;19904;-73
2023/02/14 02:17:00;;;;;;;;;;;-0.40;99.90;;;;;;5089215;28;19985;-76
2023/02/14 02:19:28;;;;;;;;;;;-0.50;99.90;;;;;;5087933;28;19908;-76
2023/02/14 02:21:54;;;;;;;;;;;-0.50;99.90;;;;;;5087721;28;20441;-76
2023/02/14 02:24:26;;;;;;;;;;;-0.40;99.90;;;;;;5088981;28;19907;-75
2023/02/14 02:27:06;;;;;;;;;;;-0.50;99.90;;;;;;5089054;28;19915;-76
2023/02/14 02:29:31;;;;;;;;;;;-0.40;99.90;;;;;;5089145;28;19908;-75
2023/02/14 02:32:15;;;;;;;;;;;-0.50;99.90;;;;;;5088063;28;19904;-75
2023/02/14 02:34:59;;;;;;;;;;;-0.30;99.90;;;;;;5088983;28;19997;-76
2023/02/14 02:37:42;;;;;;;;;;;-0.30;99.90;;;;;;5089082;28;20420;-76
2023/02/14 02:40:07;;;;;;;;;;;-0.20;99.90;;;;;;5087875;28;20054;-74
2023/02/14 02:43:02;;;;;;;;;;;-0.10;99.90;;;;;;5088915;28;19916;-76
2023/02/14 02:48:52;;;;;;;;;;;-0.20;99.90;;;;;;5089183;28;20398;-78
2023/02/14 02:54:43;;;;;;;;;;;-0.40;99.90;;;;;;5085734;28;20308;-76
2023/02/14 02:57:14;;;;;;;;;;;-0.40;99.90;;;;;;5088730;28;20049;-76
2023/02/14 02:59:41;;;;;;;;;;;-0.30;99.90;;;;;;5087320;28;19923;-76
2023/02/14 03:02:13;;;;;;;;;;;-0.30;99.90;;;;;;5088690;28;19916;-76
2023/02/14 03:04:53;;;;;;;;;;;-0.30;99.90;;;;;;5088854;28;19949;-76
2023/02/14 03:07:33;;;;;;;;;;;-0.30;99.90;;;;;;5089195;28;19904;-79
2023/02/14 03:10:01;;;;;;;;;;;-0.30;99.90;;;;;;5091366;28;19912;-77
2023/02/14 03:12:32;;;;;;;;;;;-0.30;99.90;;;;;;5091052;28;20406;-77
2023/02/14 03:15:16;;;;;;;;;;;-0.30;99.90;;;;;;5092412;28;20350;-77
2023/02/14 03:17:42;;;;;;;;;;;-0.40;99.90;;;;;;5090831;28;19904;-76
2023/02/14 03:20:21;;;;;;;;;;;-0.40;99.90;;;;;;5092374;28;19908;-76
2023/02/14 03:22:47;;;;;;;;;;;-0.40;99.90;;;;;;5092406;28;19958;-75
2023/02/14 03:25:12;;;;;;;;;;;-0.40;99.90;;;;;;5092284;28;19943;-76
2023/02/14 03:27:41;;;;;;;;;;;-0.40;99.90;;;;;;5091102;28;19912;-76
2023/02/14 03:30:13;;;;;;;;;;;-0.30;99.90;;;;;;5091181;28;19948;-78
2023/02/14 03:32:57;;;;;;;;;;;-0.30;99.90;;;;;;5091801;28;20379;-75
2023/02/14 03:35:25;;;;;;;;;;;-0.20;99.90;;;;;;5089534;28;20074;-78
2023/02/14 03:38:02;;;;;;;;;;;-0.20;99.90;;;;;;5091809;28;19950;-78
2023/02/14 03:40:35;;;;;;;;;;;-0.10;99.90;;;;;;5088749;28;19919;-77
2023/02/14 03:43:12;;;;;;;;;;;0.10;99.90;;;;;;5089899;28;20010;-75
2023/02/14 03:45:41;;;;;;;;;;;0.20;99.90;;;;;;5088628;28;19958;-77
2023/02/14 03:48:09;;;;;;;;;;;0.30;99.90;;;;;;5088234;28;20402;-77
2023/02/14 03:50:37;;;;;;;;;;;0.40;99.90;;;;;;5088662;28;19999;-76
2023/02/14 03:53:03;;;;;;;;;;;0.40;99.90;;;;;;5091726;28;19904;-78
2023/02/14 03:55:34;;;;;;;;;;;0.50;99.90;;;;;;5091601;28;19948;-77
2023/02/14 03:58:07;;;;;;;;;;;0.40;99.90;;;;;;5091558;28;19969;-76
2023/02/14 04:00:35;;;;;;;;;;;0.40;99.90;;;;;;5091182;28;19915;-76
2023/02/14 04:03:03;;;;;;;;;;;0.40;99.90;;;;;;5089992;28;19915;-77
2023/02/14 04:05:29;;;;;;;;;;;0.30;99.90;;;;;;5091346;28;19907;-76
2023/02/14 04:07:56;;;;;;;;;;;0.30;99.90;;;;;;5091400;28;20360;-76
2023/02/14 04:10:23;;;;;;;;;;;0.20;99.90;;;;;;5089705;28;20379;-76
2023/02/14 04:12:48;;;;;;;;;;;0.10;99.90;;;;;;5091208;28;20424;-76
2023/02/14 04:15:14;;;;;;;;;;;0.00;99.90;;;;;;5089368;28;19908;-74
2023/02/14 04:20:24;;;;;;;;;;;-0.30;99.90;;;;;;5090337;28;20680;-77
2023/02/14 04:22:50;;;;;;;;;;;-0.40;99.90;;;;;;5089467;28;19916;-76
2023/02/14 04:25:17;;;;;;;;;;;-0.50;99.90;;;;;;5089968;28;19930;-76
2023/02/14 04:27:42;;;;;;;;;;;-0.60;99.90;;;;;;5089201;28;20432;-76
2023/02/14 04:30:08;;;;;;;;;;;-0.60;99.90;;;;;;5089541;28;20007;-74
2023/02/14 04:32:34;;;;;;;;;;;-0.60;99.90;;;;;;5090656;28;19912;-76
2023/02/14 04:35:00;;;;;;;;;;;-0.70;99.90;;;;;;5090632;28;19949;-76
2023/02/14 04:37:25;;;;;;;;;;;-0.70;99.90;;;;;;5089250;28;19915;-75
2023/02/14 04:39:51;;;;;;;;;;;-0.80;99.90;;;;;;5091112;28;19957;-75
2023/02/14 04:42:16;;;;;;;;;;;-0.80;99.90;;;;;;5088752;28;19916;-76
2023/02/14 04:44:42;;;;;;;;;;;-0.80;99.90;;;;;;5090435;28;19929;-74
2023/02/14 04:47:07;;;;;;;;;;;-0.80;99.90;;;;;;5090326;28;20383;-75
2023/02/14 04:49:33;;;;;;;;;;;-0.90;99.90;;;;;;5089007;28;20517;-76
2023/02/14 04:51:58;;;;;;;;;;;-0.90;99.90;;;;;;5090260;28;20284;-76
2023/02/14 04:54:24;;;;;;;;;;;-0.90;99.90;;;;;;5090015;28;19908;-75
2023/02/14 04:56:49;;;;;;;;;;;-1.00;99.90;;;;;;5088930;28;19915;-76
2023/02/14 04:59:15;;;;;;;;;;;-1.00;99.90;;;;;;5088510;28;20398;-76
2023/02/14 05:01:41;;;;;;;;;;;-1.00;99.90;;;;;;5088864;28;19908;-74
2023/02/14 05:04:07;;;;;;;;;;;-1.00;99.90;;;;;;5090454;28;19908;-79
2023/02/14 05:06:32;;;;;;;;;;;-1.00;99.90;;;;;;5088630;28;19914;-77
2023/02/14 05:08:58;;;;;;;;;;;-1.10;99.90;;;;;;5089010;28;19908;-77
2023/02/14 05:11:24;;;;;;;;;;;-1.20;99.90;;;;;;5088674;28;19908;-76
2023/02/14 05:13:49;;;;;;;;;;;-1.20;99.90;;;;;;5090056;28;19908;-75
2023/02/14 05:16:15;;;;;;;;;;;-1.30;99.90;;;;;;5089500;28;19918;-75
2023/02/14 05:18:40;;;;;;;;;;;-1.30;99.90;;;;;;5089996;28;19915;-78
2023/02/14 05:21:06;;;;;;;;;;;-1.40;99.90;;;;;;5090119;28;19908;-78
2023/02/14 05:23:31;;;;;;;;;;;-1.40;99.90;;;;;;5088478;28;20006;-77
2023/02/14 05:25:57;;;;;;;;;;;-1.40;99.90;;;;;;5089509;28;19908;-75
2023/02/14 05:28:22;;;;;;;;;;;-1.40;99.90;;;;;;5089352;28;20333;-77
2023/02/14 05:30:49;;;;;;;;;;;-1.40;99.90;;;;;;5087833;28;19918;-78
2023/02/14 05:33:15;;;;;;;;;;;-1.40;99.90;;;;;;5089458;28;20283;-75
2023/02/14 05:35:40;;;;;;;;;;;-1.40;99.90;;;;;;5089672;28;19904;-76
2023/02/14 05:38:06;;;;;;;;;;;-1.40;99.90;;;;;;5088351;28;20007;-76
2023/02/14 05:40:32;;;;;;;;;;;-1.40;99.90;;;;;;5089336;28;20650;-77
2023/02/14 05:42:58;;;;;;;;;;;-1.40;99.90;;;;;;5089416;28;19916;-76
2023/02/14 05:45:23;;;;;;;;;;;-1.40;99.90;;;;;;5088149;28;19958;-76
2023/02/14 05:47:49;;;;;;;;;;;-1.50;99.90;;;;;;5088044;28;19950;-77
2023/02/14 05:50:15;;;;;;;;;;;-1.40;99.90;;;;;;5089166;28;19961;-77
2023/02/14 05:52:40;;;;;;;;;;;-1.40;99.90;;;;;;5088434;28;19908;-76
2023/02/14 05:55:06;;;;;;;;;;;-1.30;99.90;;;;;;5087961;28;19908;-76
2023/02/14 05:57:31;;;;;;;;;;;-1.30;99.90;;;;;;5089304;28;20326;-76
2023/02/14 05:59:57;;;;;;;;;;;-1.20;99.90;;;;;;5089287;28;19942;-78
2023/02/14 06:02:23;;;;;;;;;;;-1.10;99.90;;;;;;5088991;28;19916;-75
2023/02/14 06:04:48;;;;;;;;;;;-1.10;99.90;;;;;;5087796;28;19960;-76
2023/02/14 06:07:14;;;;;;;;;;;-0.90;99.90;;;;;;5087939;28;20042;-77
2023/02/14 06:09:39;;;;;;;;;;;-1.10;99.90;;;;;;5089320;28;20411;-76
2023/02/14 06:12:05;;;;;;;;;;;-1.10;99.90;;;;;;5088153;28;19908;-76
2023/02/14 06:14:30;;;;;;;;;;;-1.10;99.90;;;;;;5087694;28;19985;-77
2023/02/14 06:16:56;;;;;;;;;;;-1.10;99.90;;;;;;5087783;28;19904;-78
2023/02/14 06:19:21;;;;;;;;;;;-1.10;99.90;;;;;;5087654;28;19916;-76
2023/02/14 06:21:47;;;;;;;;;;;-1.10;99.90;;;;;;5087666;28;20360;-77
2023/02/14 06:24:13;;;;;;;;;;;-1.00;99.90;;;;;;5088816;28;20425;-76
2023/02/14 06:26:38;;;;;;;;;;;-0.90;99.90;;;;;;5087539;28;20326;-76
2023/02/14 06:29:04;;;;;;;;;;;-1.00;99.90;;;;;;5087620;28;19904;-77
2023/02/14 06:31:29;;;;;;;;;;;-0.90;99.90;;;;;;5087649;28;19903;-77
2023/02/14 06:33:55;;;;;;;;;;;-0.90;99.90;;;;;;5089033;28;19904;-77
2023/02/14 06:36:21;;;;;;;;;;;-0.80;99.90;;;;;;5088777;28;20383;-77
2023/02/14 06:38:46;;;;;;;;;;;-0.80;99.90;;;;;;5088969;28;20364;-76
2023/02/14 06:41:13;;;;;;;;;;;-0.70;99.90;;;;;;5087684;28;19904;-76
2023/02/14 06:43:39;;;;;;;;;;;-0.60;99.90;;;;;;5089989;28;19912;-75
2023/02/14 06:46:05;;;;;;;;;;;-0.50;99.90;;;;;;5092846;28;19908;-76
2023/02/14 06:48:30;;;;;;;;;;;-0.30;99.90;;;;;;5091212;28;20470;-77
2023/02/14 06:50:56;;;;;;;;;;;0.20;99.90;;;;;;5092756;28;19908;-76
2023/02/14 06:53:22;;;;;;;;;;;1.10;99.90;;;;;;5092778;28;19915;-73
2023/02/14 06:55:48;;;;;;;;;;;1.90;99.90;;;;;;5091217;28;19908;-74
2023/02/14 06:58:13;;;;;;;;;;;2.70;99.90;;;;;;5091512;28;19929;-73
2023/02/14 07:00:39;;;;;;;;;;;3.60;99.90;;;;;;5091436;28;19920;-73
2023/02/14 07:03:05;;;;;;;;;;;4.40;99.90;;;;;;5093092;28;19939;-73
2023/02/14 07:05:31;;;;;;;;;;;5.10;99.90;;;;;;5092718;28;20419;-76
2023/02/14 07:07:57;;;;;;;;;;;5.80;99.90;;;;;;5092195;28;20372;-76
2023/02/14 07:10:22;;;;;;;;;;;6.40;99.90;;;;;;5092127;28;19915;-76
2023/02/14 07:12:48;;;;;;;;;;;6.80;99.90;;;;;;5090996;28;19915;-75
2023/02/14 07:15:13;;;;;;;;;;;7.30;99.90;;;;;;5090834;28;20399;-76
2023/02/14 07:17:39;;;;;;;;;;;7.60;99.90;;;;;;5091974;28;19954;-75
2023/02/14 07:20:05;;;;;;;;;;;7.80;98.00;;;;;;5092194;28;19908;-76
2023/02/14 07:22:31;;;;;;;;;;;7.90;98.70;;;;;;5091602;28;19916;-77
2023/02/14 07:24:57;;;;;;;;;;;8.10;94.30;;;;;;5090938;28;19904;-76
2023/02/14 07:27:22;;;;;;;;;;;8.10;93.60;;;;;;5092083;28;20419;-76
2023/02/14 07:29:48;;;;;;;;;;;8.10;93.00;;;;;;5090729;28;19916;-76
2023/02/14 07:32:13;;;;;;;;;;;8.10;91.80;;;;;;5090244;28;19908;-76
2023/02/14 07:34:39;;;;;;;;;;;8.30;91.10;;;;;;5090048;28;19908;-76
2023/02/14 07:37:05;;;;;;;;;;;8.60;90.70;;;;;;5090319;28;19939;-79
2023/02/14 07:39:30;;;;;;;;;;;8.80;88.60;;;;;;5090447;28;19954;-75
2023/02/14 07:41:56;;;;;;;;;;;8.90;89.70;;;;;;5090475;28;20326;-76
2023/02/14 07:44:21;;;;;;;;;;;9.20;87.60;;;;;;5091612;28;19907;-77
2023/02/14 07:46:47;;;;;;;;;;;9.50;87.20;;;;;;5091679;28;20095;-76
2023/02/14 07:49:12;;;;;;;;;;;9.90;83.70;;;;;;5091482;28;19998;-76
2023/02/14 07:51:38;;;;;;;;;;;10.10;81.20;;;;;;5091411;28;20008;-76
2023/02/14 07:54:03;;;;;;;;;;;10.20;79.80;;;;;;5090619;28;20368;-76
2023/02/14 07:56:29;;;;;;;;;;;10.30;78.80;;;;;;5091060;28;19908;-77
2023/02/14 07:58:54;;;;;;;;;;;10.30;78.50;;;;;;5090440;28;19924;-76
2023/02/14 08:01:20;;;;;;;;;;;10.10;78.10;;;;;;5089806;28;20402;-76
2023/02/14 08:04:01;;;;;;;;;;;9.90;80.20;;;;;;5091322;28;20407;-77
2023/02/14 08:06:26;;;;;;;;;;;9.70;82.00;;;;;;5091197;28;19931;-77
2023/02/14 08:08:52;;;;;;;;;;;9.80;82.10;;;;;;5089899;28;19904;-77
2023/02/14 08:14:03;;;;;;;;;;;9.90;81.50;;;;;;5091212;28;20433;-77
2023/02/14 08:16:28;;;;;;;;;;;10.00;79.60;;;;;;5091053;28;20481;-77
2023/02/14 08:18:54;;;;;;;;;;;10.10;79.20;;;;;;5091235;28;20326;-77
2023/02/14 08:21:19;;;;;;;;;;;10.30;77.70;;;;;;5091032;28;19904;-76
2023/02/14 08:23:45;;;;;;;;;;;10.40;76.70;;;;;;5090920;28;20082;-76
2023/02/14 08:26:10;;;;;;;;;;;10.60;76.80;;;;;;5090717;28;19970;-76
2023/02/14 08:28:36;;;;;;;;;;;11.00;74.30;;;;;;5090857;28;20424;-76
2023/02/14 08:31:02;;;;;;;;;;;11.30;74.30;;;;;;5089440;28;19904;-76
2023/02/14 08:33:28;;;;;;;;;;;11.50;71.80;;;;;;5089456;28;20003;-78
2023/02/14 08:35:53;;;;;;;;;;;11.80;70.90;;;;;;5089049;28;20006;-77
2023/02/14 08:38:19;;;;;;;;;;;12.20;67.60;;;;;;5089182;28;19908;-76
2023/02/14 08:40:45;;;;;;;;;;;12.30;67.30;;;;;;5089107;28;20023;-76
2023/02/14 08:43:10;;;;;;;;;;;12.50;66.60;;;;;;5090250;28;19912;-76
2023/02/14 08:45:39;;;;;;;;;;;12.70;66.30;;;;;;5090378;28;19907;-73
2023/02/14 08:48:06;;;;;;;;;;;13.10;64.30;;;;;;5089471;28;19904;-74
2023/02/14 08:50:32;;;;;;;;;;;13.20;64.40;;;;;;5088952;28;19904;-73
2023/02/14 08:52:58;;;;;;;;;;;13.30;63.70;;;;;;5088617;28;19908;-75
2023/02/14 08:55:23;;;;;;;;;;;13.70;63.50;;;;;;5090298;28;20015;-76
2023/02/14 08:57:49;;;;;;;;;;;14.10;62.10;;;;;;5088967;28;19911;-76
2023/02/14 09:00:15;;;;;;;;;;;14.20;61.00;;;;;;5090168;28;19916;-75
2023/02/14 09:02:40;;;;;;;;;;;14.50;61.30;;;;;;5090166;28;19916;-76
2023/02/14 09:05:08;;;;;;;;;;;14.70;59.60;;;;;;5090316;28;20036;-77
2023/02/14 09:07:34;;;;;;;;;;;14.80;58.70;;;;;;5089984;28;20049;-78
2023/02/14 09:09:59;;;;;;;;;;;14.90;57.70;;;;;;5090131;28;19998;-78
2023/02/14 09:12:25;;;;;;;;;;;15.20;57.70;;;;;;5090052;28;19908;-77
2023/02/14 09:14:51;;;;;;;;;;;15.40;56.70;;;;;;5089632;28;20045;-76
2023/02/14 09:17:17;;;;;;;;;;;15.50;55.90;;;;;;5088564;28;19949;-78
2023/02/14 09:19:42;;;;;;;;;;;15.90;55.20;;;;;;5089341;28;19911;-77
2023/02/14 09:22:09;;;;;;;;;;;15.80;55.70;;;;;;5089038;28;20379;-78
2023/02/14 09:24:36;;;;;;;;;;;16.00;54.70;;;;;;5087627;28;19908;-76
2023/02/14 09:27:02;;;;;;;;;;;15.80;55.60;;;;;;5087161;28;19911;-78
2023/02/14 09:29:28;;;;;;;;;;;16.00;55.60;;;;;;5087383;28;19908;-77
2023/02/14 09:31:55;;;;;;;;;;;16.30;54.10;;;;;;5088685;28;20006;-78
2023/02/14 09:37:04;;;;;;;;;;;16.20;54.70;;;;;;5088310;28;20003;-76
2023/02/14 09:39:30;;;;;;;;;;;16.40;54.30;;;;;;5086608;28;19991;-78
2023/02/14 09:42:01;;;;;;;;;;;16.40;54.10;;;;;;5087188;28;19918;-78
2023/02/14 09:44:33;;;;;;;;;;;16.40;54.10;;;;;;5088422;28;19908;-77
2023/02/14 09:47:19;;;;;;;;;;;16.40;53.20;;;;;;5086638;28;19965;-76
2023/02/14 09:49:46;;;;;;;;;;;16.20;52.40;;;;;;5086359;28;19908;-77
2023/02/14 09:52:13;;;;;;;;;;;16.10;54.10;;;;;;5086837;28;20303;-77
2023/02/14 09:54:41;;;;;;;;;;;16.30;52.60;;;;;;5087736;28;19916;-77
2023/02/14 09:57:13;;;;;;;;;;;16.40;53.20;;;;;;5087497;28;19950;-78
2023/02/14 09:59:41;;;;;;;;;;;16.30;51.60;;;;;;5087860;28;19924;-77
2023/02/14 10:02:10;;;;;;;;;;;15.90;52.50;;;;;;5089352;28;19958;-76
2023/02/14 10:04:35;;;;;;;;;;;15.40;53.40;;;;;;5087632;28;19912;-77
2023/02/14 10:07:19;;;;;;;;;;;14.70;53.70;;;;;;5088810;28;19933;-77
2023/02/14 10:09:57;;;;;;;;;;;14.10;54.70;;;;;;5087445;28;19908;-76
2023/02/14 10:12:25;;;;;;;;;;;13.30;56.30;;;;;;5088802;28;19905;-74
2023/02/14 10:14:52;;;;;;;;;;;12.70;57.10;;;;;;5087930;28;19915;-75
2023/02/14 10:17:20;;;;;;;;;;;12.20;59.50;;;;;;5087186;28;19908;-77
2023/02/14 10:19:51;;;;;;;;;;;11.80;60.90;;;;;;5089076;28;19908;-77
2023/02/14 10:22:22;;;;;;;;;;;11.70;60.30;;;;;;5088856;28;19912;-77
2023/02/14 10:24:54;;;;;;;;;;;11.40;60.80;;;;;;5087817;28;20277;-76
2023/02/14 10:27:52;;;;;;;;;;;11.10;61.80;;;;;;5088729;28;19904;-77
2023/02/14 10:30:21;;;;;;;;;;;11.00;63.00;;;;;;5065099;28;19982;-77
2023/02/14 10:33:41;;;;;;;33.30;15.10;;;10.80;65.50;;;;;;5106100;27;20118;-76
2023/02/14 10:36:23;;;;;;;27.48;15.15;;;10.50;66.10;;;;;;5073372;28;20058;-77
2023/02/14 10:38:49;;;;;;;27.65;15.15;;;10.30;66.50;;;;;;5086059;28;20412;-78
2023/02/14 10:41:17;;;;;;;;;;;10.10;66.90;;;;;;5086344;28;20563;-77
2023/02/14 10:44:01;;;;;;;24.40;14.93;;;10.00;68.40;;;;;;5068001;28;19905;-78
2023/02/14 10:46:48;;;;;;;27.90;15.63;;;9.90;69.20;;;;;;5085738;28;20035;-77
2023/02/14 10:49:26;;;;;;;25.30;15.60;;;9.80;70.30;;;;;;5085955;28;20107;-77
2023/02/14 10:52:06;;;;;;;21.27;14.20;;;9.60;72.10;;;;;;5085592;28;20093;-76
2023/02/14 10:54:44;;;;;;;43.10;15.75;;;9.60;72.30;;;;;;5085571;28;20052;-77
2023/02/14 10:57:20;;;;;;;25.20;15.25;;;9.60;71.40;;;;;;5085269;28;20050;-76
2023/02/14 10:59:56;;;;;;;21.17;13.03;;;9.50;72.20;;;;;;5085792;28;20028;-78
2023/02/14 11:02:28;;;;;;;24.38;12.85;;;9.50;73.10;;;;;;5085394;28;20046;-77
2023/02/14 11:04:56;;;;;;;22.85;12.93;;;9.40;73.20;;;;;;5085493;28;20036;-76
2023/02/14 11:07:22;;;;;;;28.67;14.40;;;9.40;73.10;;;;;;5067330;28;20024;-77
2023/02/14 11:09:48;;;;;;;24.98;12.98;;;9.40;74.80;;;;;;5085359;28;20135;-75
2023/02/14 11:12:30;;;;;;;;;;;9.40;75.00;;;;;;5066728;28;20111;-77
2023/02/14 11:15:18;;;;;;;16.48;9.65;;;9.30;75.40;;;;;;5085258;28;19999;-76
2023/02/14 11:17:44;;;;;;;44.33;25.05;;;9.30;74.10;;;;;;5066150;28;20052;-77
2023/02/14 11:20:24;;;;;;;;;;;9.30;74.60;;;;;;5066919;28;20067;-76
2023/02/14 11:22:49;;;;;;;22.58;11.52;;;9.30;75.60;;;;;;5085163;28;19919;-76
2023/02/14 11:25:22;;;;;;;;;;;9.20;74.80;;;;;;5085529;28;20021;-76
2023/02/14 11:27:54;;;;;;;15.13;9.73;;;9.20;76.90;;;;;;5084820;28;19919;-76
2023/02/14 11:30:49;;;;;;;19.35;10.90;;;9.20;74.90;;;;;;5084544;28;20032;-77
2023/02/14 11:33:31;;;;;;;18.63;11.40;;;9.20;75.30;;;;;;5083789;28;20059;-76
2023/02/14 11:35:57;;;;;;;17.95;10.45;;;9.20;76.10;;;;;;5066666;28;20036;-76
2023/02/14 11:38:29;;;;;;;;;;;9.10;76.20;;;;;;5085465;28;20024;-76
2023/02/14 11:40:57;;;;;;;19.60;10.98;;;9.10;76.60;;;;;;5084787;28;20034;-75
2023/02/14 11:43:41;;;;;;;18.17;10.95;;;9.00;77.00;;;;;;5061905;28;20393;-76
2023/02/14 11:46:26;;;;;;;19.08;10.95;;;9.10;78.10;;;;;;5070981;28;20028;-76
2023/02/14 11:49:05;;;;;;;16.67;9.05;;;9.10;76.80;;;;;;5070757;28;20378;-76
2023/02/14 11:51:35;;;;;;;16.05;9.88;;;9.10;76.70;;;;;;5070957;28;20144;-75
2023/02/14 11:54:04;;;;;;;17.70;10.18;;;9.10;76.50;;;;;;5071175;28;20040;-76
2023/02/14 11:56:49;;;;;;;17.48;10.20;;;9.10;78.00;;;;;;5052667;28;20025;-77
2023/02/14 11:59:32;;;;;;;18.95;10.00;;;9.10;76.30;;;;;;5052911;28;20412;-77
2023/02/14 12:02:01;;;;;;;15.32;8.68;;;9.10;74.40;;;;;;5052843;28;20435;-73
2023/02/14 12:04:40;;;;;;;15.18;8.57;;;9.00;74.10;;;;;;5070465;28;20099;-77
2023/02/14 12:07:29;;;;;;;16.35;8.68;;;9.00;74.40;;;;;;5051803;28;20024;-76
2023/02/14 12:10:16;;;;;;;20.25;10.38;;;9.00;74.80;;;;;;5041783;28;20029;-77
2023/02/14 12:13:00;;;;;;;20.30;10.43;;;9.00;75.10;;;;;;5070484;28;20036;-78
2023/02/14 12:15:27;;;;;;;18.10;9.70;;;9.10;77.20;;;;;;5070809;28;20101;-76
2023/02/14 12:18:02;;;;;;;15.57;9.23;;;9.10;75.60;;;;;;5052955;28;20032;-76
2023/02/14 12:20:48;;;;;;;13.55;8.20;;;9.10;75.20;;;;;;5070499;28;20024;-77
2023/02/14 12:23:31;;;;;;;13.65;8.32;;;9.10;77.10;;;;;;5052617;28;20027;-76
2023/02/14 12:26:23;;;;;;;12.55;6.15;;;9.10;76.10;;;;;;5070584;28;20036;-76
2023/02/14 12:29:03;;;;;;;16.23;8.55;;;9.10;76.00;;;;;;5070329;28;20070;-76
2023/02/14 12:31:29;;;;;;;16.38;9.25;;;9.00;74.70;;;;;;5067133;28;20021;-76
2023/02/14 12:33:54;;;;;;;;;;;9.10;76.50;;;;;;5090567;28;20032;-76
2023/02/14 12:36:38;;;;;;;15.25;8.98;;;9.00;76.40;;;;;;5088795;28;20352;-76
2023/02/14 12:39:19;;;;;;;17.33;9.38;;;9.00;75.90;;;;;;5089651;28;20038;-76
2023/02/14 12:41:45;;;;;;;15.90;8.85;;;9.10;77.10;;;;;;5070928;28;20093;-77
2023/02/14 12:44:16;;;;;;;;;;;9.10;76.80;;;;;;5089239;28;20472;-75
2023/02/14 12:46:50;;;;;;;16.70;9.38;;;9.10;76.90;;;;;;5088233;28;19903;-76
2023/02/14 12:49:38;;;;;;;15.95;9.13;;;9.10;76.40;;;;;;5070534;28;20034;-77
2023/02/14 12:52:44;;;;;;;19.27;9.85;;;9.10;76.10;;;;;;5070755;28;20044;-77
2023/02/14 12:55:21;;;;;;;17.50;9.52;;;9.20;76.00;;;;;;5088206;28;20496;-77
2023/02/14 12:58:20;;;;;;;16.00;9.75;;;9.20;77.20;;;;;;5070244;28;20076;-76
2023/02/14 13:01:03;;;;;;;17.13;7.60;;;9.20;77.70;;;;;;5089611;28;20063;-76
2023/02/14 13:03:37;;;;;;;17.52;7.95;;;9.30;75.20;;;;;;5071495;28;20664;-76
2023/02/14 13:06:35;;;;;;;11.40;6.93;;;9.30;75.20;;;;;;5089553;28;20032;-76
2023/02/14 13:09:39;;;;;;;12.40;7.45;;;9.40;74.20;;;;;;5089664;28;20024;-76
2023/02/14 13:12:34;;;;;;;11.10;6.13;;;9.40;74.60;;;;;;5089057;28;20043;-77
2023/02/14 13:15:24;;;;;;;12.82;7.40;;;9.50;73.10;;;;;;5089597;28;20028;-76
2023/02/14 13:18:07;;;;;;;17.30;8.80;;;9.50;73.50;;;;;;5087828;28;20024;-75
2023/02/14 13:20:53;;;;;;;22.88;11.55;;;9.60;74.70;;;;;;5070357;28;20487;-77
2023/02/14 13:23:31;;;;;;;19.95;11.30;;;9.70;74.00;;;;;;5071175;28;20060;-77
2023/02/14 13:26:12;;;;;;;19.73;11.30;;;9.70;73.20;;;;;;5089475;28;20035;-76
2023/02/14 13:28:48;;;;;;;16.27;9.50;;;9.70;73.80;;;;;;5070985;28;20496;-76
2023/02/14 13:31:15;;;;;;;18.65;11.48;;;9.70;74.30;;;;;;5088136;28;20035;-75
2023/02/14 13:33:45;;;;;;;18.13;11.10;;;9.70;73.50;;;;;;5088445;28;20142;-76
2023/02/14 13:36:15;;;;;;;18.55;10.20;;;9.70;74.50;;;;;;5086085;28;20115;-76
2023/02/14 13:38:47;;;;;;;11.93;7.50;;;9.60;75.00;;;;;;5070129;28;20036;-75
2023/02/14 13:41:14;;;;;;;12.63;7.18;;;9.60;74.20;;;;;;5087947;28;20028;-76
2023/02/14 13:43:50;;;;;;;15.07;8.82;;;9.60;72.90;;;;;;5088158;28;20036;-77
2023/02/14 13:46:32;;;;;;;14.85;8.98;;;9.60;73.10;;;;;;5088111;28;20024;-76
2023/02/14 13:49:23;;;;;;;16.85;10.07;;;9.60;73.70;;;;;;5088589;28;20047;-76
2023/02/14 13:51:54;;;;;;;18.25;10.38;;;9.50;74.50;;;;;;5087953;28;20032;-75
2023/02/14 13:54:21;;;;;;;19.90;10.20;;;9.50;74.60;;;;;;5087079;28;20500;-77
2023/02/14 13:56:47;;;;;;;16.02;9.10;;;9.40;73.90;;;;;;5087556;28;20027;-76
2023/02/14 13:59:31;;;;;;;16.70;9.55;;;9.40;74.80;;;;;;5069442;28;20821;-75
2023/02/14 14:02:22;;;;;;;15.10;8.93;;;9.40;75.80;;;;;;5086137;28;20039;-76
2023/02/14 14:04:47;;;;;;;19.77;9.65;;;9.20;75.90;;;;;;5086129;28;20028;-77
2023/02/14 14:07:25;;;;;;;;;;;9.20;75.90;;;;;;5087034;28;20028;-77
2023/02/14 14:09:52;;;;;;;;;;;9.20;76.20;;;;;;5069591;28;19911;-76
2023/02/14 14:12:27;;;;;;;14.95;7.53;;;9.10;77.70;;;;;;5087130;28;19916;-76
2023/02/14 14:15:05;;;;;;;18.73;8.75;;;9.00;77.70;;;;;;5069457;28;20093;-76
2023/02/14 14:17:36;;;;;;;16.48;8.07;;;9.00;77.10;;;;;;5068409;28;20534;-75
2023/02/14 14:20:24;;;;;;;13.93;8.00;;;8.90;77.60;;;;;;5070212;28;20025;-75
2023/02/14 14:23:00;;;;;;;17.10;7.47;;;8.90;78.30;;;;;;5048094;28;20041;-75
2023/02/14 14:25:41;;;;;;;12.50;6.95;;;8.80;78.80;;;;;;5047733;28;20054;-74
2023/02/14 14:28:19;;;;;;;13.57;6.57;;;8.70;79.40;;;;;;5048096;28;20021;-74
2023/02/14 14:30:46;;;;;;;12.07;6.10;;;8.70;80.30;;;;;;5048368;28;20882;-76